CheckWX is a tool to help pilots better visualize weather data.  It is not intended as a substitute for an official pre-flight weather briefing.

02:55:36 UTC

YPCC METAR
Cocos (Keeling) Islands Airport
Cocos (Keeling) Islands, Australia
Current

26 mins ago

YPCC 230230Z AUTO 12013KT 9999 // SCT026 28/22 Q1013 RF00.0/000.0
Observed
Feb-23 @ 02:30 UTC
Wind
  • 120° at 13 KTS
Visibility
10,000+ meters
Flight Rules
VFR
Cloud Levels
  • Scattered at 2,600' AGL
Temperature
28°C / 82°F
Dewpoint
22°C / 72°F
Humidity
70%
Altimeter
29.91" Hg
Pressure
1012.92 hPa
Previous

56 mins ago

YPCC 230200Z AUTO 11010KT 9999 // NCD 29/22 Q1013
Observed
Feb-23 @ 02:00 UTC
Wind
  • 110° at 10 KTS
Visibility
10,000+ meters
Flight Rules
VFR
Cloud Levels
  • Clear skies
Temperature
29°C / 84°F
Dewpoint
22°C / 72°F
Humidity
66%
Altimeter
29.91" Hg
Pressure
1012.92 hPa
Previous

1 hour ago

YPCC 230130Z AUTO 11011KT 9999 // SCT029 SCT048 28/21 Q1013
Observed
Feb-23 @ 01:30 UTC
Wind
  • 110° at 11 KTS
Visibility
10,000+ meters
Flight Rules
VFR
Cloud Levels
  • Scattered at 2,900' AGL
  • Scattered at 4,800' AGL
Temperature
28°C / 82°F
Dewpoint
21°C / 70°F
Humidity
66%
Altimeter
29.91" Hg
Pressure
1012.92 hPa